Time;durP1;ratioP1;P1;durP2;ratioP2;P2;SDS_P1;SDS_P2;PMS_P1;PMS_P2;Temp;Humidity;BMP_temperature;BMP_pressure;BME280_temperature;BME280_humidity;BME280_pressure;Samples;Min_cycle;Max_cycle;Signal;HPM_P1;HPM_P2
2022/04/16 00:01:35;;;;;;;1.45;0.98;;;;;;;20.20;34.10;102894.22;16139615;19;129915;-47
2022/04/16 00:06:57;;;;;;;1.60;1.13;;;;;;;20.18;34.16;102901.94;16139902;19;129978;-44
2022/04/16 00:12:19;;;;;;;2.78;0.73;;;;;;;20.15;33.86;102891.22;16139855;19;129261;-46
2022/04/16 00:17:41;;;;;;;2.00;0.80;;;;;;;20.13;34.21;102896.13;16134452;19;129902;-49
2022/04/16 00:23:02;;;;;;;1.80;1.00;;;;;;;20.11;34.30;102892.69;16138484;19;129370;-47
2022/04/16 00:28:27;;;;;;;1.55;1.13;;;;;;;20.08;34.33;102887.56;16143694;19;130113;-45
2022/04/16 00:33:49;;;;;;;1.20;1.10;;;;;;;20.05;33.88;102885.22;16141267;19;129370;-45
2022/04/16 00:39:11;;;;;;;1.95;1.00;;;;;;;20.03;34.30;102890.13;16140413;19;129444;-47
2022/04/16 00:44:32;;;;;;;2.50;1.10;;;;;;;19.99;34.04;102886.88;16141711;19;129715;-46
2022/04/16 00:49:55;;;;;;;1.85;1.20;;;;;;;19.95;34.02;102893.91;16141501;19;129388;-46
2022/04/16 00:55:17;;;;;;;1.00;0.90;;;;;;;19.93;34.00;102894.13;16138771;19;129486;-47
2022/04/16 01:00:38;;;;;;;1.55;1.25;;;;;;;19.89;34.23;102887.25;16139792;19;128843;-46
2022/04/16 01:06:01;;;;;;;1.70;1.00;;;;;;;19.87;33.92;102889.38;16135854;19;129163;-45
2022/04/16 01:11:22;;;;;;;1.45;1.00;;;;;;;19.84;34.26;102898.13;16137694;19;129358;-46
2022/04/16 01:16:44;;;;;;;1.60;1.10;;;;;;;19.82;33.81;102903.00;16135632;19;130435;-44
2022/04/16 01:22:06;;;;;;;1.58;1.20;;;;;;;19.81;34.11;102901.31;16138908;19;129235;-47
2022/04/16 01:27:28;;;;;;;1.70;1.42;;;;;;;19.78;33.92;102907.28;16138338;19;129402;-50
2022/04/16 01:32:50;;;;;;;1.42;1.25;;;;;;;19.75;33.77;102913.25;16138614;19;129427;-49
2022/04/16 01:38:12;;;;;;;1.80;1.67;;;;;;;19.74;33.86;102914.31;16133910;19;129681;-45
2022/04/16 01:43:33;;;;;;;1.42;1.15;;;;;;;19.71;33.89;102909.16;16139133;19;129252;-48
2022/04/16 01:48:55;;;;;;;1.85;1.17;;;;;;;19.68;34.01;102910.44;16137860;19;129463;-45
2022/04/16 01:54:17;;;;;;;2.33;1.40;;;;;;;19.66;33.53;102915.31;16138350;19;130377;-47
2022/04/16 01:59:39;;;;;;;2.20;1.40;;;;;;;19.66;33.75;102899.53;16129934;19;129626;-43
2022/04/16 02:05:01;;;;;;;1.70;1.60;;;;;;;19.63;33.67;102904.66;16134479;19;130343;-45
2022/04/16 02:10:23;;;;;;;2.47;1.90;;;;;;;19.60;33.79;102897.56;16132545;19;130543;-43
2022/04/16 02:15:44;;;;;;;1.95;1.50;;;;;;;19.57;33.56;102902.69;16132502;19;130274;-43
2022/04/16 02:21:06;;;;;;;1.92;1.73;;;;;;;19.55;33.75;102894.56;16132153;19;130213;-43
2022/04/16 02:26:28;;;;;;;1.48;1.38;;;;;;;19.52;33.77;102897.75;16132439;19;129782;-43
2022/04/16 02:31:50;;;;;;;1.50;1.40;;;;;;;19.50;33.35;102897.97;16133240;19;130202;-45
2022/04/16 02:37:12;;;;;;;3.53;1.83;;;;;;;19.48;33.73;102896.44;16130190;19;129710;-47
2022/04/16 02:42:37;;;;;;;2.25;1.58;;;;;;;19.47;33.49;102900.25;16132752;19;130597;-44
2022/04/16 02:47:59;;;;;;;1.90;1.60;;;;;;;19.44;33.50;102909.03;16133628;19;130300;-48
2022/04/16 02:53:21;;;;;;;2.63;1.48;;;;;;;19.44;33.54;102920.13;16130535;19;130178;-45
2022/04/16 02:58:43;;;;;;;1.95;1.60;;;;;;;19.42;33.17;102925.03;16125764;19;130280;-45
2022/04/16 03:04:05;;;;;;;1.52;1.42;;;;;;;19.38;33.43;102925.41;16129441;19;129683;-45
2022/04/16 03:09:27;;;;;;;2.90;1.80;;;;;;;19.37;33.41;102929.25;16130812;19;129426;-44
2022/04/16 03:20:29;;;;;;;1.73;1.50;;;;;;;19.33;33.35;102927.09;16131896;19;130049;-44
2022/04/16 03:25:53;;;;;;;1.70;1.60;;;;;;;19.32;33.07;102920.66;16131447;19;129453;-47
2022/04/16 03:31:15;;;;;;;1.60;1.50;;;;;;;19.30;33.12;102928.34;16146599;19;129398;-47
2022/04/16 03:36:37;;;;;;;4.70;1.90;;;;;;;19.29;33.01;102932.19;16140826;19;129248;-44
2022/04/16 03:41:58;;;;;;;3.10;1.80;;;;;;;19.27;33.10;102923.19;16145638;19;129401;-43
2022/04/16 03:47:20;;;;;;;2.58;1.88;;;;;;;19.25;33.12;102930.88;16144125;19;130265;-46
2022/04/16 03:52:44;;;;;;;2.10;1.70;;;;;;;19.24;33.09;102931.09;16144561;19;129408;-45
2022/04/16 04:03:48;;;;;;;2.38;1.60;;;;;;;19.19;33.50;102937.22;16143314;19;130097;-48
2022/04/16 04:09:09;;;;;;;2.60;1.60;;;;;;;19.19;33.10;102951.06;16142516;19;129900;-44
2022/04/16 04:14:31;;;;;;;1.60;1.50;;;;;;;19.18;33.15;102935.50;16137365;19;129210;-45
2022/04/16 04:19:53;;;;;;;2.47;1.52;;;;;;;19.15;33.51;102958.91;16143161;19;129953;-46
2022/04/16 04:25:15;;;;;;;2.00;1.50;;;;;;;19.16;33.17;102962.56;16142030;19;129596;-45
2022/04/16 04:30:37;;;;;;;2.63;1.45;;;;;;;19.16;33.50;102970.91;16142436;19;129202;-51
2022/04/16 04:35:58;;;;;;;1.77;1.50;;;;;;;19.15;33.19;102970.03;16136431;19;129413;-44
2022/04/16 04:41:20;;;;;;;1.65;1.38;;;;;;;19.15;33.02;102974.72;16140170;19;129901;-44
2022/04/16 04:46:42;;;;;;;1.90;1.38;;;;;;;19.14;33.43;102973.00;16140432;19;131189;-44
2022/04/16 04:52:04;;;;;;;1.67;1.55;;;;;;;19.12;33.06;102980.66;16141101;19;131771;-46
2022/04/16 04:57:27;;;;;;;3.35;1.70;;;;;;;19.12;33.35;102975.13;16138079;19;129287;-45
2022/04/16 05:02:49;;;;;;;2.00;1.50;;;;;;;19.11;33.21;102984.50;16139219;19;130661;-44
2022/04/16 05:08:11;;;;;;;2.05;1.55;;;;;;;19.12;33.35;102997.31;16132445;19;129484;-46
2022/04/16 05:13:32;;;;;;;2.28;1.50;;;;;;;19.11;33.53;102990.03;16134681;19;129940;-43
2022/04/16 05:18:54;;;;;;;2.10;1.35;;;;;;;19.10;33.06;102994.75;16134765;19;129142;-47
2022/04/16 05:24:16;;;;;;;2.05;1.65;;;;;;;19.10;33.06;102988.31;16137256;19;129631;-47
2022/04/16 05:29:56;;;;;;;2.50;1.50;;;;;;;19.07;33.46;102993.25;16139694;19;130555;-43
2022/04/16 05:35:18;;;;;;;2.83;1.80;;;;;;;19.11;33.50;103003.91;16135291;19;129539;-44
2022/04/16 05:40:40;;;;;;;55.28;3.70;;;;;;;19.19;33.09;103003.78;16135143;19;129514;-44
2022/04/16 05:46:02;;;;;;;6.20;1.92;;;;;;;19.30;33.30;103010.75;16137818;19;129182;-45
2022/04/16 05:51:25;;;;;;;6.18;2.00;;;;;;;19.51;32.84;103007.06;16131168;19;130955;-45
2022/04/16 05:56:47;;;;;;;8.02;1.77;;;;;;;19.77;32.76;103025.84;16136082;19;129208;-44
2022/04/16 06:02:12;;;;;;;3.88;1.50;;;;;;;19.94;32.54;103028.31;16136185;19;130013;-49
2022/04/16 06:07:33;;;;;;;6.37;1.87;;;;;;;20.08;32.69;103032.91;16131430;19;130265;-44
2022/04/16 06:12:55;;;;;;;3.95;1.30;;;;;;;20.18;32.41;103040.88;16129608;19;129469;-47
2022/04/16 06:18:17;;;;;;;4.85;1.73;;;;;;;20.24;32.19;103040.06;16132264;19;129403;-45
2022/04/16 06:23:39;;;;;;;3.08;1.80;;;;;;;20.29;32.06;103037.53;16134537;19;130085;-45
2022/04/16 06:29:01;;;;;;;2.45;1.67;;;;;;;20.35;32.29;103051.66;16135385;19;130172;-44
2022/04/16 06:34:23;;;;;;;5.85;2.67;;;;;;;20.39;32.57;103052.97;16133988;19;129386;-51
2022/04/16 06:39:45;;;;;;;5.20;2.25;;;;;;;20.43;32.67;103057.88;16129696;19;129999;-49
2022/04/16 06:45:09;;;;;;;7.45;3.00;;;;;;;20.48;32.80;103046.16;16134089;19;132672;-48
2022/04/16 06:50:31;;;;;;;5.45;2.70;;;;;;;20.54;32.71;103053.69;16130269;19;129639;-47
2022/04/16 06:55:52;;;;;;;2.72;2.20;;;;;;;20.57;33.12;103049.59;16129218;19;130717;-48
2022/04/16 07:01:14;;;;;;;6.88;2.83;;;;;;;20.63;32.75;103047.91;16134595;19;129044;-49
2022/04/16 07:06:39;;;;;;;7.78;2.45;;;;;;;20.67;32.64;103046.44;16145040;19;132278;-46
2022/04/16 07:12:00;;;;;;;7.15;4.07;;;;;;;20.68;32.56;103045.34;16143609;19;129086;-51
2022/04/16 07:17:22;;;;;;;6.20;5.30;;;;;;;20.61;32.26;103056.47;16142958;19;129439;-52
2022/04/16 07:22:44;;;;;;;8.98;4.85;;;;;;;20.65;31.97;103056.91;16148044;19;130783;-51
2022/04/16 07:28:06;;;;;;;7.88;4.38;;;;;;;20.72;32.04;103055.00;16146073;19;129138;-51
2022/04/16 07:33:31;;;;;;;6.88;4.38;;;;;;;20.78;32.29;103048.66;16147644;19;129991;-51
2022/04/16 07:38:53;;;;;;;7.82;4.10;;;;;;;20.85;32.04;103051.44;16143041;19;129258;-46
2022/04/16 07:44:14;;;;;;;5.68;3.78;;;;;;;20.88;32.04;103060.22;16146704;19;130137;-54
2022/04/16 07:49:36;;;;;;;5.65;3.47;;;;;;;20.93;31.67;103054.03;16141683;19;129886;-47
2022/04/16 07:54:58;;;;;;;5.80;3.40;;;;;;;20.97;32.15;103058.13;16145147;19;129319;-50
2022/04/16 08:00:20;;;;;;;4.65;2.90;;;;;;;20.99;32.08;103064.31;16140873;19;130540;-45
2022/04/16 08:05:42;;;;;;;5.07;2.50;;;;;;;21.02;31.71;103060.25;16141967;19;129990;-54
2022/04/16 08:11:03;;;;;;;5.82;2.88;;;;;;;21.05;31.58;103062.59;16142997;19;129394;-50
2022/04/16 08:16:25;;;;;;;9.85;2.75;;;;;;;21.06;31.85;103072.66;16140166;19;130835;-51
2022/04/16 08:21:47;;;;;;;6.75;2.20;;;;;;;21.07;31.67;103066.03;16140016;19;130119;-51
2022/04/16 08:27:09;;;;;;;4.65;2.50;;;;;;;21.07;31.70;103074.38;16139598;19;129309;-52
2022/04/16 08:32:44;;;;;;;2.90;2.45;;;;;;;21.10;31.97;103079.53;16138188;19;132826;-48
2022/04/16 08:38:06;;;;;;;7.90;2.60;;;;;;;21.08;31.72;103084.44;16137683;19;130053;-47
2022/04/16 08:43:29;;;;;;;10.00;3.25;;;;;;;21.06;31.83;103083.81;16138701;19;128889;-45
2022/04/16 08:48:50;;;;;;;7.00;4.00;;;;;;;20.99;31.38;103091.28;16139055;19;132047;-43
2022/04/16 08:54:12;;;;;;;9.23;4.63;;;;;;;20.93;31.28;103089.31;16137076;19;129636;-47
2022/04/16 08:59:34;;;;;;;7.75;3.80;;;;;;;20.92;31.42;103090.44;16132525;19;130532;-45
2022/04/16 09:05:09;;;;;;;6.65;3.83;;;;;;;20.95;31.35;103092.75;16138905;19;129508;-47
2022/04/16 09:10:33;;;;;;;10.90;4.03;;;;;;;20.97;31.46;103093.41;16135826;19;129179;-49
2022/04/16 09:16:05;;;;;;;7.05;3.30;;;;;;;20.99;31.20;103085.72;16139723;19;131317;-45
2022/04/16 09:21:28;;;;;;;8.60;3.25;;;;;;;20.97;31.49;103077.59;16136365;19;130068;-49
2022/04/16 09:26:50;;;;;;;6.82;3.22;;;;;;;20.95;31.58;103071.38;16134933;19;130533;-46
2022/04/16 09:32:25;;;;;;;10.85;3.33;;;;;;;20.94;31.55;103077.13;16138883;19;129409;-46
2022/04/16 09:37:53;;;;;;;5.28;2.90;;;;;;;20.92;31.45;103074.56;16133469;19;129829;-49
2022/04/16 09:43:15;;;;;;;4.55;2.83;;;;;;;20.89;31.30;103081.44;16137125;19;129689;-46
2022/04/16 09:48:37;;;;;;;8.82;3.05;;;;;;;20.88;30.97;103084.41;16135725;19;130336;-45
2022/04/16 09:54:02;;;;;;;9.35;2.40;;;;;;;20.86;31.51;103069.88;16134179;19;129286;-46
2022/04/16 09:59:26;;;;;;;8.13;2.57;;;;;;;20.85;31.19;103068.16;16131736;19;129272;-44
2022/04/16 10:04:48;;;;;;;3.13;2.00;;;;;;;20.82;31.38;103074.97;16135924;19;128858;-44
2022/04/16 10:10:18;;;;;;;3.72;2.13;;;;;;;20.79;30.93;103064.28;16127921;19;130056;-45
2022/04/16 10:15:59;;;;;;;5.30;1.90;;;;;;;20.78;31.38;103061.69;16136572;19;129539;-47
2022/04/16 10:21:21;;;;;;;8.35;2.17;;;;;;;20.74;31.10;103064.00;16130552;19;129566;-46
2022/04/16 10:26:44;;;;;;;9.63;2.00;;;;;;;20.73;31.10;103070.63;16136828;19;129625;-43
2022/04/16 10:32:17;;;;;;;6.93;1.70;;;;;;;20.72;31.35;103071.69;16135240;19;129477;-43
2022/04/16 10:37:41;;;;;;;8.73;2.03;;;;;;;20.70;31.10;103066.34;16134192;19;129274;-45
2022/04/16 10:43:03;;;;;;;6.47;2.10;;;;;;;20.68;31.11;103060.13;16134831;19;128946;-47
2022/04/16 10:48:25;;;;;;;6.55;2.00;;;;;;;20.66;31.27;103062.25;16134105;19;130488;-47
2022/04/16 10:53:46;;;;;;;6.35;2.35;;;;;;;20.65;31.45;103054.13;16134693;19;131297;-47
2022/04/16 10:59:10;;;;;;;8.23;2.15;;;;;;;20.66;31.48;103036.38;16129684;19;130384;-47
2022/04/16 11:04:34;;;;;;;22.92;3.05;;;;;;;20.58;32.31;103049.38;16129419;19;129459;-60
2022/04/16 11:09:57;;;;;;;16.60;2.40;;;;;;;20.54;32.27;103045.34;16125120;19;130240;-61
2022/04/16 11:15:23;;;;;;;9.13;2.83;;;;;;;20.44;32.23;103033.72;16133210;19;129138;-63
2022/04/16 11:20:58;;;;;;;7.38;3.05;;;;;;;20.48;31.60;103039.75;16127221;19;129516;-61
2022/04/16 11:37:55;;;;;;;7.78;3.30;;;;;;;20.41;31.56;103015.53;16130533;19;130377;-61
2022/04/16 11:43:17;;;;;;;7.28;3.30;;;;;;;20.41;31.50;103017.47;16127946;19;130641;-62
2022/04/16 11:48:49;;;;;;;8.50;2.80;;;;;;;20.42;31.30;103013.63;16134751;19;129349;-62
2022/04/16 11:54:10;;;;;;;7.28;3.08;;;;;;;20.39;31.29;103005.69;15909270;19;3014520;-62
2022/04/16 11:59:33;;;;;;;6.53;2.90;;;;;;;20.37;30.89;103005.88;16137649;19;129737;-61
2022/04/16 12:05:06;;;;;;;10.55;3.15;;;;;;;20.35;30.71;102990.50;16141976;19;129399;-61
2022/04/16 12:10:29;;;;;;;9.80;2.80;;;;;;;20.31;30.62;103011.44;16134469;19;130149;-61
2022/04/16 12:15:50;;;;;;;7.00;2.30;;;;;;;20.31;30.53;103008.66;16138563;19;131155;-61
2022/04/16 12:21:14;;;;;;;4.70;1.95;;;;;;;20.31;31.06;103011.44;16136915;19;130657;-60
2022/04/16 12:26:47;;;;;;;3.28;2.55;;;;;;;20.32;30.84;103002.88;16143783;19;130459;-61
2022/04/16 12:32:09;;;;;;;8.85;2.42;;;;;;;20.32;30.79;103002.88;16139182;19;130387;-62
2022/04/16 12:37:31;;;;;;;10.02;3.08;;;;;;;20.32;30.88;102993.69;16140811;19;129874;-60
2022/04/16 12:42:54;;;;;;;9.20;2.65;;;;;;;20.31;30.58;103011.44;16143302;19;129817;-61
2022/04/16 12:48:16;;;;;;;9.75;2.28;;;;;;;20.26;30.97;103004.56;16138870;19;130990;-61
2022/04/16 12:53:38;;;;;;;5.57;2.30;;;;;;;20.23;31.11;102988.31;16138626;19;130032;-70
2022/04/16 12:59:00;;;;;;;7.32;1.95;;;;;;;20.23;31.30;102987.47;16140840;19;130301;-66
2022/04/16 13:04:22;;;;;;;7.20;1.98;;;;;;;20.24;31.29;102981.69;16134359;19;130636;-65
2022/04/16 13:09:43;;;;;;;4.88;2.05;;;;;;;20.23;31.11;102979.97;16128530;19;129717;-63
2022/04/16 13:15:07;;;;;;;8.75;1.67;;;;;;;20.23;31.32;102976.34;16135681;19;129404;-63
2022/04/16 13:20:28;;;;;;;4.55;1.60;;;;;;;20.21;30.94;102970.97;16134796;19;129953;-62
2022/04/16 13:25:51;;;;;;;6.20;1.50;;;;;;;20.21;31.31;102962.63;16131646;19;129735;-63
2022/04/16 13:31:12;;;;;;;6.10;1.88;;;;;;;20.20;31.29;102960.91;16127559;19;129364;-62
2022/04/16 13:36:34;;;;;;;6.10;1.65;;;;;;;20.18;30.79;102951.97;16131641;19;129608;-64
2022/04/16 13:41:56;;;;;;;5.00;1.58;;;;;;;20.17;30.70;102953.03;16127751;19;129696;-63
2022/04/16 13:47:20;;;;;;;6.25;1.88;;;;;;;20.16;30.94;102934.63;16134864;19;130690;-63
2022/04/16 13:52:43;;;;;;;7.47;2.00;;;;;;;20.14;30.99;102926.47;16140283;19;129149;-64
2022/04/16 13:58:04;;;;;;;6.30;1.83;;;;;;;20.14;30.66;102926.47;16139217;19;129265;-64
2022/04/16 14:03:26;;;;;;;4.18;1.58;;;;;;;20.12;31.02;102939.72;16139302;19;129640;-63
2022/04/16 14:08:48;;;;;;;4.82;1.42;;;;;;;20.10;31.07;102921.56;16136286;19;130482;-63
2022/04/16 14:14:10;;;;;;;7.30;1.70;;;;;;;20.10;30.68;102916.88;16132423;19;129432;-64
2022/04/16 14:19:32;;;;;;;2.53;1.58;;;;;;;20.09;30.65;102905.94;16134119;19;129384;-63
2022/04/16 14:24:53;;;;;;;6.28;1.63;;;;;;;20.09;30.58;102911.50;16139115;19;128745;-64
2022/04/16 14:30:15;;;;;;;2.80;1.50;;;;;;;20.08;30.67;102909.78;16138437;19;129525;-64
2022/04/16 14:35:37;;;;;;;3.55;1.65;;;;;;;20.06;30.58;102909.16;16138968;19;129270;-63
2022/04/16 14:41:09;;;;;;;4.53;1.55;;;;;;;20.05;30.76;102904.66;16133198;19;129408;-64
2022/04/16 14:46:31;;;;;;;3.00;1.40;;;;;;;20.03;30.83;102906.78;16139046;19;130013;-63
2022/04/16 14:51:57;;;;;;;3.28;1.48;;;;;;;20.03;30.38;102906.78;16136348;19;128906;-63
2022/04/16 14:57:19;;;;;;;3.75;1.33;;;;;;;20.03;30.58;102896.53;16133445;19;130447;-63
2022/04/16 15:02:41;;;;;;;2.80;1.67;;;;;;;20.03;30.58;102892.91;16131218;19;129366;-63
2022/04/16 15:08:03;;;;;;;4.05;1.50;;;;;;;20.01;30.79;102895.03;16157263;19;129538;-63
2022/04/16 15:13:24;;;;;;;4.13;1.70;;;;;;;19.99;30.58;102890.53;16213093;19;128306;-63
2022/04/16 15:18:46;;;;;;;1.90;1.17;;;;;;;19.98;30.73;102880.44;16213499;19;129286;-63
2022/04/16 15:24:09;;;;;;;3.03;1.45;;;;;;;19.99;30.62;102873.84;16224419;19;129427;-63
2022/04/16 15:29:31;;;;;;;1.60;1.05;;;;;;;19.98;30.54;102874.03;16231806;19;128743;-63
2022/04/16 15:34:52;;;;;;;3.22;1.70;;;;;;;19.97;30.71;102875.94;16229211;19;127740;-63
2022/04/16 15:40:14;;;;;;;3.17;1.50;;;;;;;19.97;30.40;102867.63;16229051;19;129052;-63
2022/04/16 15:45:36;;;;;;;2.15;1.60;;;;;;;19.96;30.84;102871.47;16231422;19;129490;-63
2022/04/16 15:50:58;;;;;;;2.72;1.48;;;;;;;19.95;30.57;102861.41;16229911;19;129535;-63
2022/04/16 15:56:20;;;;;;;3.40;1.77;;;;;;;19.95;30.53;102869.75;16230402;19;128284;-63
2022/04/16 16:01:42;;;;;;;2.38;1.60;;;;;;;19.95;30.52;102866.97;16225930;19;128644;-62
2022/04/16 16:07:03;;;;;;;2.05;1.30;;;;;;;19.95;30.36;102861.41;16230362;19;128647;-62
2022/04/16 16:12:25;;;;;;;3.72;1.40;;;;;;;19.94;30.88;102854.13;16224824;19;128441;-63
2022/04/16 16:17:48;;;;;;;1.90;1.40;;;;;;;19.93;30.66;102846.91;16228043;19;128605;-63
2022/04/16 16:23:09;;;;;;;2.13;1.20;;;;;;;19.93;30.78;102844.13;16227156;19;129233;-63
2022/04/16 16:28:31;;;;;;;1.65;1.50;;;;;;;19.92;30.55;102845.19;16223236;19;129282;-63
2022/04/16 16:33:53;;;;;;;2.03;1.38;;;;;;;19.92;30.55;102839.63;16223593;19;128787;-63
2022/04/16 16:39:15;;;;;;;1.92;1.65;;;;;;;19.92;30.57;102842.41;16223142;19;129908;-62
2022/04/16 16:44:37;;;;;;;1.83;1.50;;;;;;;19.91;30.74;102837.03;16227465;19;128151;-62
2022/04/16 16:49:58;;;;;;;2.78;1.50;;;;;;;19.92;30.59;102836.84;16180318;19;128806;-62
2022/04/16 16:55:23;;;;;;;1.92;1.40;;;;;;;19.90;30.30;102827.84;16136769;19;129631;-62
2022/04/16 17:00:45;;;;;;;2.38;1.52;;;;;;;19.90;30.11;102822.31;16141214;19;129007;-62
2022/04/16 17:06:07;;;;;;;1.77;1.50;;;;;;;19.90;30.41;102836.19;16142140;19;129157;-62
2022/04/16 17:11:30;;;;;;;2.78;1.40;;;;;;;19.87;30.62;102836.59;16138131;19;129486;-62
2022/04/16 17:22:32;;;;;;;2.05;1.30;;;;;;;19.85;30.07;102830.38;16138211;19;129318;-62
2022/04/16 17:27:53;;;;;;;3.28;1.38;;;;;;;19.86;30.33;102836.81;16141955;19;129702;-62
2022/04/16 17:33:15;;;;;;;2.15;1.40;;;;;;;19.83;30.32;102830.63;16140720;19;129168;-62
2022/04/16 17:38:38;;;;;;;1.50;1.40;;;;;;;19.82;30.30;102830.81;16141648;19;130318;-63
2022/04/16 17:44:00;;;;;;;3.00;1.27;;;;;;;19.81;30.50;102840.22;16141798;19;129268;-62
2022/04/16 17:49:22;;;;;;;2.42;1.20;;;;;;;19.78;30.51;102829.53;16140406;19;131571;-62
2022/04/16 17:54:44;;;;;;;1.60;1.13;;;;;;;19.78;30.63;102843.41;16141174;19;128944;-62
2022/04/16 18:00:07;;;;;;;1.80;1.20;;;;;;;19.76;30.73;102849.16;16138117;19;129037;-62
2022/04/16 18:05:29;;;;;;;2.03;1.10;;;;;;;19.74;30.31;102854.09;16140663;19;129541;-62
2022/04/16 18:10:52;;;;;;;1.75;1.13;;;;;;;19.73;30.46;102854.28;16132012;19;130432;-62
2022/04/16 18:16:13;;;;;;;4.32;1.15;;;;;;;19.71;30.40;102861.94;16130046;19;130846;-63
2022/04/16 18:21:36;;;;;;;1.15;1.05;;;;;;;19.70;30.66;102866.66;16132389;19;129814;-62
2022/04/16 18:27:01;;;;;;;2.10;1.20;;;;;;;19.71;30.32;102867.50;16129318;19;130685;-62
2022/04/16 18:32:23;;;;;;;1.65;1.20;;;;;;;19.81;30.68;102879.13;16135175;19;129473;-62
2022/04/16 18:37:48;;;;;;;15.27;1.65;;;;;;;19.87;30.55;102880.19;16133067;19;130073;-64
2022/04/16 18:43:10;;;;;;;7.33;1.30;;;;;;;19.95;30.74;102891.97;16130341;19;129761;-61
2022/04/16 18:48:32;;;;;;;6.22;1.70;;;;;;;20.06;30.77;102904.44;16132754;19;129098;-64
2022/04/16 18:53:54;;;;;;;6.00;1.20;;;;;;;20.23;30.34;102904.94;16139893;19;130092;-61
2022/04/16 18:59:16;;;;;;;8.02;1.40;;;;;;;20.47;30.39;102910.97;16142349;19;129263;-61
2022/04/16 19:10:19;;;;;;;11.55;1.23;;;;;;;20.89;30.22;102908.94;16143863;19;130588;-62
2022/04/16 19:15:45;;;;;;;13.52;1.50;;;;;;;21.11;30.25;102911.47;16146660;19;130566;-63
2022/04/16 19:21:07;;;;;;;25.05;1.88;;;;;;;21.25;30.07;102911.47;16140805;19;129693;-62
2022/04/16 19:26:29;;;;;;;7.88;1.50;;;;;;;21.28;30.44;102906.31;16146946;19;129064;-64
2022/04/16 19:31:53;;;;;;;8.65;1.73;;;;;;;21.29;30.31;102915.53;16149537;19;129437;-63
2022/04/16 19:37:19;;;;;;;14.32;1.30;;;;;;;21.26;30.89;102913.19;16149437;19;129322;-65
2022/04/16 19:42:41;;;;;;;19.25;1.98;;;;;;;21.19;30.69;102925.16;16142046;19;130695;-63
2022/04/16 19:48:06;;;;;;;8.80;1.95;;;;;;;21.14;30.75;102921.31;16148898;19;129791;-63
2022/04/16 19:53:27;;;;;;;6.75;1.70;;;;;;;21.06;31.38;102919.59;16147543;19;129144;-64
2022/04/16 19:58:49;;;;;;;9.88;1.40;;;;;;;20.99;31.07;102924.34;16145863;19;129681;-63
2022/04/16 20:04:11;;;;;;;7.72;1.23;;;;;;;20.93;31.17;102919.59;16146475;19;129823;-64
2022/04/16 20:15:14;;;;;;;5.10;1.10;;;;;;;20.85;31.31;102918.75;16145178;19;129046;-63
2022/04/16 20:20:36;;;;;;;4.72;0.90;;;;;;;20.88;31.93;102912.78;16141913;19;129885;-63
2022/04/16 20:25:59;;;;;;;6.95;1.35;;;;;;;21.02;31.62;102915.56;16143034;19;132378;-63
2022/04/16 20:31:20;;;;;;;4.03;0.88;;;;;;;21.16;31.78;102913.63;16143871;19;129119;-64
2022/04/16 20:36:42;;;;;;;1.58;0.85;;;;;;;21.27;31.29;102903.78;16140060;19;131594;-64
2022/04/16 20:47:45;;;;;;;11.30;2.15;;;;;;;21.30;31.55;102897.75;16138164;19;129106;-64
2022/04/16 20:53:17;;;;;;;8.27;1.30;;;;;;;21.20;30.99;102893.47;16142077;19;129346;-64
2022/04/16 20:58:38;;;;;;;3.33;1.17;;;;;;;21.11;31.19;102883.66;16139448;19;129197;-64
2022/04/16 21:04:01;;;;;;;7.15;1.25;;;;;;;21.02;31.26;102882.16;16135918;19;129674;-63
2022/04/16 21:09:23;;;;;;;2.85;0.90;;;;;;;20.93;31.21;102886.22;16139958;19;129003;-63
2022/04/16 21:14:44;;;;;;;4.40;1.10;;;;;;;20.83;31.14;102881.94;16135617;19;131713;-64
2022/04/16 21:20:08;;;;;;;4.40;1.08;;;;;;;20.75;30.90;102873.78;16139295;19;129466;-63
2022/04/16 21:25:30;;;;;;;5.40;1.10;;;;;;;20.66;31.14;102872.31;16137902;19;129460;-64
2022/04/16 21:30:52;;;;;;;1.90;0.80;;;;;;;20.60;31.14;102882.34;16141344;19;129621;-63
2022/04/16 21:36:13;;;;;;;1.95;1.00;;;;;;;20.52;31.08;102875.06;16139164;19;129407;-63
2022/04/16 21:41:35;;;;;;;3.33;1.10;;;;;;;20.47;30.88;102872.06;16136465;19;129894;-64
2022/04/16 21:46:57;;;;;;;5.00;0.95;;;;;;;20.43;31.00;102870.78;16140486;19;129890;-64
2022/04/16 21:52:21;;;;;;;5.63;1.27;;;;;;;20.39;30.66;102861.13;16140213;19;129092;-63
2022/04/16 21:57:45;;;;;;;1.75;0.90;;;;;;;20.36;31.00;102864.34;16136848;19;129332;-63
2022/04/16 22:03:07;;;;;;;3.42;0.95;;;;;;;20.31;30.99;102862.19;16133801;19;128867;-63
2022/04/16 22:08:31;;;;;;;2.28;0.75;;;;;;;20.28;30.70;102863.47;16137518;19;129963;-63
2022/04/16 22:13:56;;;;;;;3.95;0.80;;;;;;;20.24;30.55;102858.56;16132955;19;129583;-63
2022/04/16 22:19:19;;;;;;;1.13;0.73;;;;;;;20.20;30.48;102857.25;16136969;19;129148;-63
2022/04/16 22:24:43;;;;;;;1.20;0.88;;;;;;;20.16;30.51;102865.16;16138216;19;129888;-64
2022/04/16 22:30:05;;;;;;;1.48;1.00;;;;;;;20.13;30.63;102871.97;16138858;19;129278;-63
2022/04/16 22:35:27;;;;;;;1.77;0.80;;;;;;;20.11;30.63;102871.34;16134421;19;129368;-63
2022/04/16 22:41:04;;;;;;;1.02;0.70;;;;;;;20.08;30.30;102868.97;16132720;19;129312;-63
2022/04/16 22:46:26;;;;;;;1.20;0.90;;;;;;;20.04;30.48;102862.13;16135660;19;129104;-63
2022/04/16 22:51:48;;;;;;;2.10;0.80;;;;;;;20.01;30.41;102854.19;16135791;19;129161;-63
2022/04/16 22:57:09;;;;;;;4.13;1.00;;;;;;;19.98;30.03;102855.44;16135924;19;129738;-63
2022/04/16 23:02:31;;;;;;;2.05;0.90;;;;;;;19.95;30.30;102853.06;16131280;19;129931;-63
2022/04/16 23:07:53;;;;;;;1.33;0.80;;;;;;;19.92;30.36;102850.72;16135425;19;129415;-62
2022/04/16 23:13:16;;;;;;;1.98;0.93;;;;;;;19.89;30.40;102851.16;16131339;19;129278;-63
2022/04/16 23:18:39;;;;;;;1.73;0.80;;;;;;;19.87;30.27;102850.50;16132071;19;129165;-63
2022/04/16 23:24:02;;;;;;;1.50;0.80;;;;;;;19.85;30.56;102847.06;16130799;19;129692;-63
2022/04/16 23:29:24;;;;;;;1.73;0.73;;;;;;;19.83;30.50;102846.41;16133057;19;129502;-63
2022/04/16 23:34:46;;;;;;;2.50;0.82;;;;;;;19.82;30.64;102841.91;16134715;19;129515;-62
2022/04/16 23:40:08;;;;;;;0.77;0.55;;;;;;;19.79;30.21;102843.19;16131890;19;128929;-62
2022/04/16 23:51:10;;;;;;;1.13;0.68;;;;;;;19.76;30.47;102842.75;16149117;19;130042;-63
2022/04/16 23:56:31;;;;;;;2.20;0.60;;;;;;;19.74;30.54;102833.78;16147888;19;129278;-63
